»·PEaware :: N54678 KEMT-KCRQ

N54678 :: KEMT-KCRQ

FLIGHT INFORMATION

Flight Status: Arrived
Operator: Privately registered:
United States
More flights under this callsign
Pilot: Charlton B. (28558)
Aircraft: BEECH AIRCRAFT BONANZA
(BE36)
More flights by this aircraft type
Origin: KEMT El Monte
United States
Destination: KCRQ McClellan-Palomar
United States
More flights between these airports :: More routes between these airports
Route: +PDZ V186 ROBNN V458 OCN
File this flight plan on PilotEdge
Remarks: TEC ONTP11
Altitude:
(Current/Filed)
7,000ft
Speed:
(Current/Filed)
140kts
Departed: 15-Aug-20 09:25 AM
Arrived: 15-Aug-20 10:09 AM
Distance/Time
Traveled:
69nm/0:44
Distance/Time
To Go:
Arrived

Flight Plot

Page will automatically refresh every two minutes.


Map Options




Map Legend


Flown Route
Filed Route
Departure Airport
Arrival Airport
Navaid (VOR, NDB)
Fix

Horizontal Profiles

Position Reports

Time Latitude Longitude Heading Altitude Ground
Speed
15-Aug-20 09:09 34.086047 -118.033308 24 289ft 0kts
15-Aug-20 09:10 34.086047 -118.033308 24 289ft 0kts
15-Aug-20 09:11 34.086047 -118.033308 24 289ft 0kts
15-Aug-20 09:12 34.086047 -118.033308 24 289ft 0kts
15-Aug-20 09:13 34.086047 -118.033308 24 289ft 0kts
15-Aug-20 09:14 34.086047 -118.033308 24 289ft 0kts
15-Aug-20 09:15 34.086047 -118.033308 24 289ft 0kts
15-Aug-20 09:16 34.086047 -118.033308 24 289ft 0kts
15-Aug-20 09:17 34.089749 -118.032073 31 294ft 29kts
15-Aug-20 09:18 34.090605 -118.031372 294 297ft 0kts
15-Aug-20 09:19 34.090605 -118.031372 294 297ft 0kts
15-Aug-20 09:20 34.090605 -118.031372 294 297ft 0kts
15-Aug-20 09:21 34.090605 -118.031372 294 297ft 0kts
15-Aug-20 09:22 34.090605 -118.031372 294 297ft 0kts
15-Aug-20 09:23 34.090606 -118.031374 295 297ft 0kts
15-Aug-20 09:24 34.085906 -118.034975 205 294ft 88kts
15-Aug-20 09:25 34.060499 -118.044166 189 1493ft 100kts
15-Aug-20 09:26 34.058034 -118.019401 74 2705ft 101kts
15-Aug-20 09:27 34.061726 -117.985191 89 3885ft 104kts
15-Aug-20 09:28 34.055512 -117.951606 114 5033ft 104kts
15-Aug-20 09:29 34.045446 -117.918497 109 6054ft 107kts
15-Aug-20 09:30 34.033717 -117.885738 108 6987ft 112kts
15-Aug-20 09:31 34.022808 -117.842917 112 7008ft 146kts
15-Aug-20 09:32 34.006555 -117.796628 111 7011ft 152kts
15-Aug-20 09:33 33.990843 -117.749131 110 7009ft 152kts
15-Aug-20 09:34 33.975162 -117.701226 113 7010ft 156kts
15-Aug-20 09:35 33.958770 -117.652082 113 7011ft 159kts
15-Aug-20 09:36 33.942267 -117.602306 113 7016ft 159kts
15-Aug-20 09:37 33.925705 -117.552491 113 7015ft 160kts
15-Aug-20 09:38 33.897866 -117.513154 146 7017ft 156kts
15-Aug-20 09:39 33.862259 -117.483162 147 7021ft 157kts
15-Aug-20 09:40 33.826274 -117.453040 146 7028ft 157kts
15-Aug-20 09:41 33.790225 -117.423226 143 7035ft 156kts
15-Aug-20 09:42 33.754897 -117.393411 143 7045ft 155kts
15-Aug-20 09:43 33.719527 -117.363757 143 7049ft 154kts
15-Aug-20 09:44 33.684203 -117.334265 144 7053ft 154kts
15-Aug-20 09:45 33.648798 -117.304745 144 7054ft 155kts
15-Aug-20 09:46 33.613415 -117.275244 144 7055ft 155kts
15-Aug-20 09:47 33.578091 -117.245753 144 7049ft 155kts
15-Aug-20 09:48 33.542378 -117.216065 144 7035ft 156kts
15-Aug-20 09:49 33.506712 -117.186451 144 7020ft 156kts
15-Aug-20 09:50 33.469341 -117.160510 165 7005ft 158kts
15-Aug-20 09:51 33.426140 -117.150754 168 6988ft 158kts
15-Aug-20 09:52 33.382908 -117.141576 168 6997ft 157kts
15-Aug-20 09:53 33.349643 -117.121603 141 6107ft 141kts
15-Aug-20 09:54 33.316706 -117.091699 141 5222ft 153kts
15-Aug-20 09:55 33.281831 -117.059897 141 5010ft 160kts
15-Aug-20 09:56 33.246496 -117.027472 141 5017ft 160kts
15-Aug-20 09:57 33.212075 -116.995710 141 5019ft 147kts
15-Aug-20 09:58 33.182319 -116.968204 141 5027ft 126kts
15-Aug-20 09:59 33.155716 -116.943076 141 5039ft 125kts
15-Aug-20 10:00 33.136802 -116.965829 297 4631ft 151kts
15-Aug-20 10:01 33.168010 -116.995383 314 4481ft 146kts
15-Aug-20 10:02 33.165873 -117.043823 262 3832ft 175kts
15-Aug-20 10:03 33.157003 -117.101508 263 3114ft 167kts
15-Aug-20 10:04 33.148103 -117.153458 260 2438ft 132kts
15-Aug-20 10:05 33.142262 -117.192235 254 1694ft 114kts
15-Aug-20 10:06 33.136948 -117.227157 257 1170ft 105kts
15-Aug-20 10:07 33.131276 -117.261734 259 592ft 101kts
15-Aug-20 10:08 33.127825 -117.279553 163 335ft 0kts
15-Aug-20 10:09 33.127010 -117.278679 180 335ft 0kts

Navigation Log

Ident Type
Flight plan parsing failed, navigation log unavailable